Time;durP1;ratioP1;P1;durP2;ratioP2;P2;SDS_P1;SDS_P2;PMS_P1;PMS_P2;Temp;Humidity;BMP_temperature;BMP_pressure;BME280_temperature;BME280_humidity;BME280_pressure;Samples;Min_cycle;Max_cycle;Signal;HPM_P1;HPM_P2
2022/08/30 00:03:17;;;;;;;3.83;0.90;;;17.30;99.90;;;16.42;100.00;101757.88;5010359;28;20074;-75
2022/08/30 00:05:43;;;;;;;6.80;1.02;;;17.30;99.90;;;16.43;100.00;101764.03;4995149;28;20033;-76
2022/08/30 00:08:10;;;;;;;9.55;1.33;;;17.30;99.90;;;16.43;100.00;101764.03;5006749;28;20041;-75
2022/08/30 00:10:38;;;;;;;4.68;0.93;;;17.30;99.90;;;16.42;100.00;101770.31;5010878;28;20112;-76
2022/08/30 00:13:05;;;;;;;5.90;1.13;;;17.30;99.90;;;16.42;100.00;101762.34;5018692;28;20037;-76
2022/08/30 00:15:32;;;;;;;7.28;1.08;;;17.40;99.90;;;16.40;100.00;101767.72;5006684;28;20021;-76
2022/08/30 00:17:58;;;;;;;6.55;1.08;;;17.30;99.90;;;16.36;100.00;101769.69;5020675;28;20029;-75
2022/08/30 00:20:28;;;;;;;13.10;1.20;;;17.30;99.90;;;16.37;100.00;101773.19;5011409;28;20671;-75
2022/08/30 00:22:57;;;;;;;6.10;1.30;;;17.30;99.90;;;16.36;100.00;101769.69;5028752;28;20033;-75
2022/08/30 00:25:23;;;;;;;6.95;1.40;;;17.30;99.90;;;16.30;100.00;101772.66;5045429;28;20033;-75
2022/08/30 00:27:49;;;;;;;15.43;1.80;;;17.20;99.90;;;16.23;100.00;101765.97;5009900;28;20017;-75
2022/08/30 00:30:18;;;;;;;12.23;1.52;;;17.10;99.90;;;16.16;100.00;101770.75;5014561;28;20037;-75
2022/08/30 00:32:44;;;;;;;8.88;1.48;;;17.10;99.90;;;16.09;100.00;101764.06;5045113;28;20069;-75
2022/08/30 00:35:12;;;;;;;4.07;0.93;;;17.10;99.90;;;16.05;100.00;101766.97;5022515;28;20087;-75
2022/08/30 00:37:39;;;;;;;3.00;0.70;;;17.00;99.90;;;16.04;100.00;101759.94;5035420;28;20124;-75
2022/08/30 00:40:08;;;;;;;8.77;1.30;;;17.00;99.90;;;16.06;100.00;101763.38;5022760;28;20040;-75
2022/08/30 00:42:42;;;;;;;2.83;0.82;;;17.00;99.90;;;16.07;100.00;101763.28;5021446;28;20029;-76
2022/08/30 00:45:15;;;;;;;3.97;0.93;;;17.00;99.90;;;16.09;100.00;101764.06;5021053;28;20100;-75
2022/08/30 00:47:41;;;;;;;2.97;0.70;;;17.00;99.90;;;16.08;100.00;101761.50;5035880;28;20443;-75
2022/08/30 00:50:08;;;;;;;1.42;0.65;;;17.10;99.90;;;16.13;100.00;101768.28;5019920;28;20029;-75
2022/08/30 00:52:37;;;;;;;4.43;1.13;;;17.10;99.90;;;16.17;100.00;101760.97;5019944;28;20049;-75
2022/08/30 00:55:04;;;;;;;3.55;0.55;;;17.10;99.90;;;16.20;100.00;101766.16;5027754;28;20045;-75
2022/08/30 00:57:30;;;;;;;3.10;0.80;;;17.10;99.90;;;16.18;100.00;101765.38;5032924;28;20029;-75
2022/08/30 00:59:57;;;;;;;8.60;1.10;;;17.10;99.90;;;16.12;100.00;101773.66;5020793;28;20105;-75
2022/08/30 01:02:29;;;;;;;7.43;1.10;;;17.10;99.90;;;16.15;100.00;101771.69;5021441;28;20575;-75
2022/08/30 01:04:56;;;;;;;9.43;1.25;;;17.10;99.90;;;16.17;100.00;101776.94;5021714;28;20501;-75
2022/08/30 01:07:25;;;;;;;5.60;1.13;;;17.10;99.90;;;16.14;100.00;101775.31;5035650;28;20035;-75
2022/08/30 01:09:50;;;;;;;10.98;1.40;;;17.10;99.90;;;16.15;100.00;101782.31;4999127;28;20509;-75
2022/08/30 01:12:17;;;;;;;4.90;1.20;;;17.10;99.90;;;16.15;100.00;101776.16;4998100;28;20044;-75
2022/08/30 01:14:44;;;;;;;4.45;1.08;;;17.10;99.90;;;16.16;100.00;101775.22;5046071;28;20018;-75
2022/08/30 01:17:09;;;;;;;9.77;1.45;;;17.10;99.90;;;16.18;100.00;101779.50;5017292;28;20045;-75
2022/08/30 01:19:53;;;;;;;8.75;1.42;;;17.10;99.90;;;16.10;100.00;101776.41;5018858;28;20025;-76
2022/08/30 01:22:20;;;;;;;6.82;1.20;;;17.00;99.90;;;16.01;100.00;101782.22;5019895;28;20557;-76
2022/08/30 01:24:50;;;;;;;9.68;1.30;;;17.00;99.90;;;16.01;100.00;101776.91;5005923;28;20117;-75
2022/08/30 01:27:20;;;;;;;13.68;1.20;;;17.00;99.90;;;16.02;100.00;101778.59;4999053;28;20026;-75
2022/08/30 01:29:46;;;;;;;16.30;1.20;;;17.00;99.90;;;16.04;100.00;101782.03;4996081;28;20100;-75
2022/08/30 01:32:20;;;;;;;10.73;1.55;;;17.00;99.90;;;16.04;100.00;101776.72;4986454;28;20498;-76
2022/08/30 01:34:47;;;;;;;4.10;1.33;;;17.00;99.90;;;16.03;100.00;101785.66;5003572;28;20030;-76
2022/08/30 01:37:35;;;;;;;8.90;1.60;;;17.00;99.90;;;16.03;100.00;101783.00;5018586;28;20398;-75
2022/08/30 01:40:02;;;;;;;12.18;1.40;;;17.00;99.90;;;16.03;100.00;101785.66;5027469;28;20021;-75
2022/08/30 01:42:28;;;;;;;9.18;1.48;;;17.00;99.90;;;16.05;100.00;101781.09;5009514;28;20034;-75
2022/08/30 01:44:53;;;;;;;8.55;1.58;;;17.00;99.90;;;16.04;100.00;101786.50;5017493;28;20029;-75
2022/08/30 01:47:20;;;;;;;8.43;1.63;;;17.00;99.90;;;16.01;100.00;101797.28;5021301;28;20056;-75
2022/08/30 01:49:47;;;;;;;3.03;1.17;;;16.90;99.90;;;15.98;100.00;101792.97;5019302;28;20033;-76
2022/08/30 01:52:18;;;;;;;5.13;1.30;;;16.90;99.90;;;15.99;100.00;101789.41;4992395;28;20524;-75
2022/08/30 01:54:45;;;;;;;12.75;1.48;;;16.90;99.90;;;15.93;100.00;101789.72;5017773;28;20128;-75
2022/08/30 01:57:22;;;;;;;7.47;1.50;;;16.90;99.90;;;15.89;100.00;101794.31;5023664;28;20433;-76
2022/08/30 01:59:49;;;;;;;3.97;1.30;;;16.80;99.90;;;15.79;100.00;101790.44;5003269;28;20080;-76
2022/08/30 02:02:24;;;;;;;11.18;1.52;;;16.80;99.90;;;15.80;100.00;101794.81;5008760;28;20045;-75
2022/08/30 02:04:52;;;;;;;3.13;1.20;;;16.70;99.90;;;15.73;100.00;101801.38;5030561;28;20040;-75
2022/08/30 02:07:19;;;;;;;5.53;1.38;;;16.70;99.90;;;15.70;100.00;101799.72;4980964;28;20197;-75
2022/08/30 02:09:45;;;;;;;4.55;1.40;;;16.70;99.90;;;15.65;100.00;101796.41;4997539;28;20033;-75
2022/08/30 02:12:11;;;;;;;6.32;1.15;;;16.70;99.90;;;15.68;100.00;101788.31;5022585;28;20036;-75
2022/08/30 02:14:37;;;;;;;3.50;1.02;;;16.70;99.90;;;15.75;100.00;101797.69;5008953;28;20028;-75
2022/08/30 02:17:12;;;;;;;5.32;1.50;;;16.70;99.90;;;15.78;100.00;101796.69;4981725;28;20036;-75
2022/08/30 02:19:39;;;;;;;7.57;1.40;;;16.70;99.90;;;15.78;100.00;101794.88;5020953;28;20029;-76
2022/08/30 02:22:08;;;;;;;7.55;1.45;;;16.80;99.90;;;15.81;100.00;101798.31;4987206;28;20036;-75
2022/08/30 02:24:34;;;;;;;5.43;1.58;;;16.80;99.90;;;15.83;100.00;101801.75;4988153;28;20398;-74
2022/08/30 02:27:01;;;;;;;10.40;1.85;;;16.80;99.90;;;15.84;100.00;101806.13;5008914;28;20039;-75
2022/08/30 02:29:27;;;;;;;3.92;1.60;;;16.80;99.90;;;15.81;100.00;101807.16;5017239;28;20025;-76
2022/08/30 02:31:53;;;;;;;7.18;1.58;;;16.80;99.90;;;15.84;100.00;101807.00;5042312;28;20617;-76
2022/08/30 02:34:20;;;;;;;8.80;1.92;;;16.80;99.90;;;15.84;100.00;101808.78;4982217;28;20029;-75
2022/08/30 02:36:46;;;;;;;4.68;1.45;;;16.80;99.90;;;15.81;100.00;101804.50;5019906;28;20112;-75
2022/08/30 02:39:13;;;;;;;5.53;1.50;;;16.80;99.90;;;15.80;100.00;101802.78;5024883;28;20037;-76
2022/08/30 02:41:40;;;;;;;5.35;1.63;;;16.80;99.90;;;15.76;100.00;101807.38;5025913;28;20124;-76
2022/08/30 02:44:07;;;;;;;7.88;1.58;;;16.80;99.90;;;15.76;100.00;101802.06;5018608;28;20045;-75
2022/08/30 02:46:34;;;;;;;9.32;1.63;;;16.70;99.90;;;15.74;100.00;101801.31;5015997;28;20029;-76
2022/08/30 02:49:00;;;;;;;6.30;1.88;;;16.80;99.90;;;15.75;100.00;101807.47;4994848;28;20032;-75
2022/08/30 02:51:26;;;;;;;5.28;1.63;;;16.80;99.90;;;15.75;100.00;101807.47;4972060;28;20056;-75
2022/08/30 02:53:52;;;;;;;4.93;1.45;;;16.70;99.90;;;15.73;100.00;101804.88;5008771;28;20041;-75
2022/08/30 02:56:18;;;;;;;7.40;1.55;;;16.70;99.90;;;15.70;100.00;101806.78;5002802;28;20021;-76
2022/08/30 02:58:44;;;;;;;8.95;1.58;;;16.70;99.90;;;15.66;100.00;101802.56;5009130;28;20025;-76
2022/08/30 03:01:12;;;;;;;8.32;1.60;;;16.70;99.90;;;15.67;100.00;101807.81;5002853;28;20048;-75
2022/08/30 03:03:41;;;;;;;8.75;1.73;;;16.70;99.90;;;15.66;100.00;101805.22;5026520;28;20083;-75
2022/08/30 03:06:10;;;;;;;4.32;1.27;;;16.70;99.90;;;15.65;100.00;101806.19;5010254;28;20080;-75
2022/08/30 03:08:36;;;;;;;7.78;1.50;;;16.60;99.90;;;15.57;100.00;101806.56;5010901;28;20026;-75
2022/08/30 03:11:02;;;;;;;7.28;1.65;;;16.60;99.90;;;15.53;100.00;101812.97;5019450;28;20065;-77
2022/08/30 03:13:28;;;;;;;7.95;1.50;;;16.60;99.90;;;15.54;100.00;101814.69;5011898;28;20065;-76
2022/08/30 03:15:54;;;;;;;11.48;1.55;;;16.60;99.90;;;15.53;100.00;101807.66;5022956;28;20374;-76
2022/08/30 03:18:29;;;;;;;20.08;1.90;;;16.60;99.90;;;15.52;100.00;101813.91;4972901;28;20049;-76
2022/08/30 03:20:55;;;;;;;15.77;2.08;;;16.60;99.90;;;15.51;100.00;101814.84;4955371;28;20044;-77
2022/08/30 03:23:22;;;;;;;5.97;1.80;;;16.60;99.90;;;15.54;100.00;101815.53;5024535;28;20025;-77
2022/08/30 03:25:48;;;;;;;8.32;2.30;;;16.60;99.90;;;15.55;100.00;101813.72;4999453;28;20057;-76
2022/08/30 03:28:16;;;;;;;9.25;2.50;;;16.60;99.90;;;15.51;100.00;101810.41;4971232;28;20595;-76
2022/08/30 03:30:42;;;;;;;11.98;2.75;;;16.60;99.90;;;15.51;100.00;101812.19;4966170;28;20041;-77
2022/08/30 03:33:08;;;;;;;10.30;2.75;;;16.50;99.90;;;15.49;100.00;101816.72;4998210;28;20048;-76
2022/08/30 03:35:34;;;;;;;11.35;2.42;;;16.50;99.90;;;15.50;100.00;101813.97;5018954;28;20025;-77
2022/08/30 03:38:00;;;;;;;8.13;2.70;;;16.50;99.90;;;15.54;100.00;101814.69;4992037;28;20017;-77
2022/08/30 03:40:26;;;;;;;13.23;3.15;;;16.60;99.90;;;15.57;100.00;101819.81;4961818;28;20042;-76
2022/08/30 03:42:56;;;;;;;13.27;3.08;;;16.60;99.90;;;15.58;100.00;101822.41;4956809;28;20024;-77
2022/08/30 03:45:22;;;;;;;8.52;2.80;;;16.60;99.90;;;15.59;100.00;101824.16;4971654;28;20494;-77
2022/08/30 03:47:48;;;;;;;6.80;2.60;;;16.60;99.90;;;15.59;100.00;101807.34;4981276;28;20028;-77
2022/08/30 03:50:15;;;;;;;7.25;2.53;;;16.60;99.90;;;15.59;100.00;101821.50;4990506;28;20034;-76
2022/08/30 03:52:41;;;;;;;4.22;2.30;;;16.60;99.90;;;15.59;100.00;101824.16;5013174;28;20044;-77
2022/08/30 03:55:10;;;;;;;9.93;2.53;;;16.60;99.90;;;15.57;100.00;101817.16;4968834;28;20041;-77
2022/08/30 03:57:39;;;;;;;7.13;2.20;;;16.60;99.90;;;15.53;100.00;101826.25;4959853;28;20029;-77
2022/08/30 04:00:06;;;;;;;9.38;2.35;;;16.50;99.90;;;15.49;100.00;101822.88;4972193;28;20028;-77
2022/08/30 04:02:32;;;;;;;10.60;2.42;;;16.50;99.90;;;15.47;100.00;101818.59;4988863;28;20033;-77
2022/08/30 04:04:58;;;;;;;8.48;2.33;;;16.50;99.90;;;15.47;100.00;101826.56;4978728;28;20033;-77
2022/08/30 04:07:26;;;;;;;4.88;2.55;;;16.50;99.90;;;15.44;100.00;101830.19;4980489;28;20034;-77
2022/08/30 04:09:54;;;;;;;6.97;2.50;;;16.50;99.90;;;15.44;100.00;101818.72;4919905;28;20436;-77
2022/08/30 04:12:20;;;;;;;7.07;2.95;;;16.50;99.90;;;15.48;100.00;101829.09;4968378;28;20099;-77
2022/08/30 04:14:46;;;;;;;6.82;2.65;;;16.50;99.90;;;15.48;100.00;101820.28;4973413;22;20045;-76
2022/08/30 04:17:12;;;;;;;7.18;2.92;;;16.50;99.90;;;15.49;100.00;101814.06;4960503;28;20393;-77
2022/08/30 04:19:38;;;;;;;9.63;2.72;;;16.50;99.90;;;15.45;100.00;101821.31;4963182;28;20072;-76
2022/08/30 04:22:06;;;;;;;12.75;2.80;;;16.40;99.90;;;15.38;100.00;101820.75;4938487;28;20117;-77
2022/08/30 04:24:34;;;;;;;5.72;3.42;;;16.40;99.90;;;15.41;100.00;101824.19;4938211;28;20049;-76
2022/08/30 04:27:00;;;;;;;10.90;3.15;;;16.40;99.90;;;15.39;100.00;101826.91;4926290;28;20112;-76
2022/08/30 04:29:26;;;;;;;10.30;3.13;;;16.40;99.90;;;15.38;100.00;101831.38;4931476;28;20031;-77
2022/08/30 04:32:06;;;;;;;9.40;2.92;;;16.40;99.90;;;15.39;100.00;101825.13;4957568;28;20758;-77
2022/08/30 04:34:32;;;;;;;5.25;2.60;;;16.40;99.90;;;15.33;100.00;101835.19;4989758;23;20041;-77
2022/08/30 04:36:58;;;;;;;11.68;2.70;;;16.40;99.90;;;15.37;100.00;101832.28;4988290;28;20108;-76
2022/08/30 04:39:29;;;;;;;4.35;2.15;;;16.40;99.90;;;15.38;100.00;101830.53;5002703;28;20020;-77
2022/08/30 04:41:56;;;;;;;3.55;1.95;;;16.30;99.90;;;15.34;100.00;101831.59;4997640;28;20036;-77
2022/08/30 04:44:22;;;;;;;9.63;2.47;;;16.40;99.90;;;15.37;100.00;101831.44;4965929;28;20030;-76
2022/08/30 04:46:48;;;;;;;7.97;2.80;;;16.40;99.90;;;15.44;100.00;101837.31;4990750;28;20040;-76
2022/08/30 04:49:14;;;;;;;7.40;2.22;;;16.40;99.90;;;15.44;100.00;101835.50;4987443;28;20014;-77
2022/08/30 04:51:43;;;;;;;10.23;2.58;;;16.40;99.90;;;15.45;100.00;101837.25;4975521;28;20060;-76
2022/08/30 04:54:08;;;;;;;8.10;2.20;;;16.40;99.90;;;15.47;100.00;101839.81;5013737;28;20043;-76
2022/08/30 04:56:34;;;;;;;9.05;2.80;;;16.50;99.90;;;15.53;100.00;101842.19;5014550;28;20436;-76
2022/08/30 04:59:00;;;;;;;7.82;2.80;;;16.50;99.90;;;15.58;100.00;101841.00;4983492;28;20033;-76
2022/08/30 05:01:30;;;;;;;10.30;2.70;;;16.50;99.90;;;15.61;100.00;101845.28;4985066;28;20034;-76
2022/08/30 05:04:01;;;;;;;9.35;2.80;;;16.60;99.90;;;15.64;100.00;101842.50;4976513;28;20029;-76
2022/08/30 05:06:29;;;;;;;7.75;2.38;;;16.60;99.90;;;15.67;100.00;101838.81;4998921;28;20034;-76
2022/08/30 05:08:59;;;;;;;5.38;2.58;;;16.60;99.90;;;15.65;100.00;101838.88;4992569;28;20037;-76
2022/08/30 05:11:30;;;;;;;6.55;2.40;;;16.60;99.90;;;15.70;100.00;101843.97;4993389;28;20545;-76
2022/08/30 05:13:56;;;;;;;8.18;2.58;;;16.70;99.90;;;15.74;100.00;101850.88;5011759;22;20060;-76
2022/08/30 05:16:22;;;;;;;6.95;2.17;;;16.70;99.90;;;15.72;100.00;101845.66;5045671;28;20084;-76
2022/08/30 05:18:49;;;;;;;9.70;2.00;;;16.70;99.90;;;15.72;100.00;101843.00;5019430;28;20587;-76
2022/08/30 05:21:25;;;;;;;7.68;1.88;;;16.70;99.90;;;15.78;100.00;101847.97;5017454;28;20017;-76
2022/08/30 05:23:58;;;;;;;8.38;1.80;;;16.60;99.90;;;15.77;100.00;101842.78;5004997;28;20113;-76
2022/08/30 05:26:29;;;;;;;5.40;1.88;;;16.70;99.90;;;15.81;100.00;101844.34;4981907;28;20025;-76
2022/08/30 05:28:55;;;;;;;3.72;1.77;;;16.70;99.90;;;15.83;100.00;101845.13;4994931;28;20071;-76
2022/08/30 05:31:26;;;;;;;7.03;2.20;;;16.80;99.90;;;15.88;100.00;101850.19;4944217;28;20037;-76
2022/08/30 05:33:53;;;;;;;3.85;1.58;;;16.80;99.90;;;15.93;100.00;101849.00;5003841;28;20544;-76
2022/08/30 05:36:22;;;;;;;9.05;1.90;;;16.80;99.90;;;15.97;100.00;101852.38;4983435;28;20069;-76
2022/08/30 05:38:49;;;;;;;7.38;2.10;;;16.80;99.90;;;15.92;100.00;101857.91;4971542;28;20052;-76
2022/08/30 05:41:18;;;;;;;5.70;1.80;;;16.90;99.90;;;16.03;100.00;101853.88;4969245;28;20167;-76
2022/08/30 05:43:46;;;;;;;7.15;2.05;;;17.00;99.90;;;16.06;100.00;101854.53;5007279;28;20056;-76
2022/08/30 05:46:18;;;;;;;4.40;1.67;;;17.00;99.90;;;16.07;100.00;101856.28;5012923;28;20524;-76
2022/08/30 05:48:44;;;;;;;5.45;1.80;;;17.00;99.90;;;16.10;100.00;101857.91;4998201;28;20036;-76
2022/08/30 05:51:27;;;;;;;5.90;1.60;;;17.00;99.90;;;16.13;100.00;101855.97;5008667;28;20112;-76
2022/08/30 05:53:55;;;;;;;4.15;1.60;;;17.00;99.90;;;16.15;100.00;101856.72;5025349;28;20045;-76
2022/08/30 05:56:35;;;;;;;5.30;1.65;;;17.00;99.90;;;16.18;100.00;101859.22;4990091;28;20038;-76
2022/08/30 05:59:03;;;;;;;6.57;1.75;;;17.10;99.90;;;16.20;100.00;101860.00;4994542;28;20030;-76
2022/08/30 06:01:37;;;;;;;3.22;1.58;;;17.10;99.90;;;16.25;100.00;101856.25;4968563;28;20048;-76
2022/08/30 06:04:04;;;;;;;8.52;1.70;;;17.20;99.90;;;16.34;100.00;101863.75;5002082;28;20422;-76
2022/08/30 06:06:34;;;;;;;2.17;1.45;;;17.20;99.90;;;16.34;100.00;101864.59;5017361;28;20030;-76
2022/08/30 06:09:01;;;;;;;4.65;1.27;;;17.20;99.90;;;16.36;100.00;101862.72;4999491;28;20028;-76
2022/08/30 06:11:27;;;;;;;7.97;1.60;;;17.20;99.90;;;16.37;100.00;101863.56;4987310;28;20018;-75
2022/08/30 06:13:54;;;;;;;3.88;1.55;;;17.20;99.90;;;16.33;100.00;101865.53;4972537;28;20047;-76
2022/08/30 06:16:25;;;;;;;6.30;1.25;;;17.20;99.90;;;16.31;100.00;101866.56;4983107;28;20579;-76
2022/08/30 06:18:52;;;;;;;4.97;1.30;;;17.20;99.90;;;16.27;100.00;101868.53;5006421;28;20113;-75
2022/08/30 06:21:28;;;;;;;5.63;1.30;;;17.20;99.90;;;16.30;100.00;101867.50;4975136;28;20028;-76
2022/08/30 06:23:55;;;;;;;9.07;1.33;;;17.20;99.90;;;16.38;100.00;101867.94;4991527;28;20113;-76
2022/08/30 06:26:25;;;;;;;2.17;1.30;;;17.30;99.90;;;16.48;100.00;101874.50;4987845;28;20462;-76
2022/08/30 06:28:51;;;;;;;3.70;1.25;;;17.30;99.90;;;16.58;100.00;101870.38;4988255;28;20094;-76
2022/08/30 06:31:19;;;;;;;6.18;1.40;;;17.40;99.90;;;16.68;100.00;101875.25;4998748;28;20056;-76
2022/08/30 06:33:46;;;;;;;7.07;1.40;;;17.50;99.90;;;16.75;100.00;101868.63;4997477;28;20394;-76
2022/08/30 06:36:19;;;;;;;5.80;1.50;;;17.50;99.90;;;16.81;100.00;101876.31;4956841;28;20033;-76
2022/08/30 06:38:49;;;;;;;4.35;1.55;;;17.60;99.90;;;16.83;100.00;101874.44;4965619;28;20026;-77
2022/08/30 06:41:21;;;;;;;3.35;1.42;;;17.60;99.90;;;16.89;100.00;101881.19;5005964;28;20021;-76
2022/08/30 06:43:47;;;;;;;5.53;1.33;;;17.70;99.90;;;16.91;100.00;101880.19;4990556;28;20026;-76
2022/08/30 06:46:21;;;;;;;7.40;1.50;;;17.70;99.90;;;16.91;100.00;101877.53;4983094;28;20502;-76
2022/08/30 06:48:47;;;;;;;5.43;1.35;;;17.70;99.90;;;16.87;100.00;101873.31;4962500;28;20021;-75
2022/08/30 06:51:13;;;;;;;6.43;1.52;;;17.80;99.90;;;16.98;100.00;101880.72;4968392;28;20049;-76
2022/08/30 06:53:39;;;;;;;6.07;1.40;;;17.80;99.90;;;17.13;100.00;101885.19;4940225;28;20065;-75
2022/08/30 06:56:10;;;;;;;8.15;1.30;;;17.90;99.90;;;17.08;100.00;101886.38;4964035;28;20034;-76
2022/08/30 06:58:40;;;;;;;8.02;1.17;;;18.00;99.90;;;17.16;100.00;101895.66;4976923;28;20469;-76
2022/08/30 07:01:10;;;;;;;4.75;1.10;;;18.00;99.90;;;17.25;100.00;101893.41;4975499;28;20021;-76
2022/08/30 07:03:35;;;;;;;5.15;1.00;;;18.10;99.90;;;17.39;100.00;101889.03;4978658;28;20545;-75
2022/08/30 07:06:01;;;;;;;2.50;1.00;;;18.10;99.90;;;17.43;100.00;101898.56;4994621;28;20124;-76
2022/08/30 07:08:28;;;;;;;8.30;1.30;;;18.20;99.90;;;17.51;100.00;101891.94;4991616;28;20026;-76
2022/08/30 07:10:56;;;;;;;4.25;1.10;;;18.20;99.90;;;17.49;100.00;101897.34;4992436;28;20087;-76
2022/08/30 07:13:22;;;;;;;2.33;1.02;;;18.30;99.90;;;17.69;100.00;101898.00;4998270;28;20099;-76
2022/08/30 07:15:49;;;;;;;3.25;1.13;;;18.50;99.90;;;17.90;100.00;101903.91;4998827;28;20053;-76
2022/08/30 07:21:09;;;;;;;4.45;0.90;;;18.60;99.90;;;17.82;98.83;101905.25;4967273;28;20037;-76
2022/08/30 07:23:36;;;;;;;7.47;1.00;;;18.60;99.90;;;17.72;96.94;101909.34;4986780;28;20428;-77
2022/08/30 07:26:05;;;;;;;5.20;0.98;;;18.60;99.90;;;17.71;95.94;101912.97;4998361;28;20026;-76
2022/08/30 07:28:35;;;;;;;3.75;1.20;;;18.60;99.90;;;17.68;98.33;101902.47;4987943;28;20033;-75
2022/08/30 07:31:01;;;;;;;2.15;0.93;;;18.60;99.90;;;17.81;97.01;101919.47;4985817;28;20030;-75
2022/08/30 07:33:27;;;;;;;2.58;0.80;;;18.60;99.90;;;17.78;95.10;101924.13;4974744;28;20037;-76
2022/08/30 07:35:53;;;;;;;3.45;1.20;;;18.60;99.90;;;17.88;96.87;101927.13;4981030;28;20029;-76
2022/08/30 07:38:19;;;;;;;2.03;0.80;;;18.70;99.90;;;17.80;97.12;101923.09;4988757;28;20060;-76
2022/08/30 07:40:47;;;;;;;4.15;0.88;;;18.60;99.90;;;17.84;96.47;101929.13;4967391;28;20444;-79
2022/08/30 07:43:12;;;;;;;2.83;1.00;;;18.60;99.90;;;17.80;94.24;101925.75;4947431;28;20059;-80
2022/08/30 07:45:38;;;;;;;3.17;0.90;;;18.70;99.90;;;17.93;94.25;101933.91;4937223;28;20076;-79
2022/08/30 07:48:06;;;;;;;4.80;1.10;;;18.70;99.90;;;17.74;92.97;101934.09;4913969;28;20104;-79
2022/08/30 07:50:32;;;;;;;1.85;0.82;;;18.70;99.90;;;17.80;91.62;101939.06;4939663;28;20144;-79
2022/08/30 07:52:58;;;;;;;3.80;0.80;;;18.60;99.90;;;17.75;89.36;101930.50;4914598;28;20038;-77
2022/08/30 07:55:27;;;;;;;4.53;0.70;;;;;;;17.99;90.17;101943.34;4914645;28;20049;-79
2022/08/30 07:57:53;;;;;;;2.10;0.80;;;18.90;99.90;;;18.15;87.73;101944.16;4930578;28;20026;-78
2022/08/30 08:00:19;;;;;;;1.80;0.73;;;19.00;99.90;;;18.22;85.18;101948.16;4925778;28;20587;-78
2022/08/30 08:02:45;;;;;;;4.05;0.77;;;19.00;99.90;;;18.27;85.68;101952.38;4889107;28;20047;-78
2022/08/30 08:05:13;;;;;;;2.13;0.82;;;19.10;99.90;;;18.61;84.92;101946.72;4932047;28;20069;-78
2022/08/30 08:07:48;;;;;;;3.05;0.80;;;19.30;99.90;;;18.83;83.45;101964.09;4923614;28;20060;-78
2022/08/30 08:10:14;;;;;;;4.22;1.00;;;19.40;99.90;;;18.79;80.89;101970.56;4970945;28;20022;-78
2022/08/30 08:12:40;;;;;;;2.10;0.70;;;19.60;99.90;;;19.11;82.92;101971.25;4928686;28;20053;-77
2022/08/30 08:15:12;;;;;;;8.32;1.17;;;19.80;99.90;;;19.38;80.37;101968.66;4948639;28;20029;-78
2022/08/30 08:17:38;;;;;;;6.93;0.93;;;19.90;99.90;;;19.80;80.21;101974.84;4907751;28;20085;-78
2022/08/30 08:20:04;;;;;;;1.80;0.63;;;20.40;99.90;;;20.04;78.59;101976.84;4919997;28;20033;-78
2022/08/30 08:22:30;;;;;;;3.30;0.70;;;20.60;99.90;;;20.03;75.75;101973.34;4910459;28;20034;-78
2022/08/30 08:24:56;;;;;;;1.63;0.70;;;20.60;99.90;;;19.93;74.99;101974.91;4964727;28;20025;-78
2022/08/30 08:27:23;;;;;;;2.38;0.70;;;20.70;99.90;;;20.11;76.61;101980.84;4944707;28;20046;-78
2022/08/30 08:29:49;;;;;;;3.08;0.80;;;20.70;99.90;;;20.08;76.01;101981.88;4906492;28;20053;-77
2022/08/30 08:32:15;;;;;;;2.25;0.80;;;20.80;99.90;;;20.26;74.27;101987.00;4919023;28;20038;-78
2022/08/30 08:34:46;;;;;;;3.00;0.88;;;20.90;99.90;;;20.28;72.62;101980.56;4901454;28;20045;-78
2022/08/30 08:37:12;;;;;;;2.05;0.70;;;20.80;99.90;;;19.97;70.89;101986.25;4903851;28;20078;-78
2022/08/30 08:39:37;;;;;;;2.95;0.80;;;20.90;99.90;;;20.30;75.60;101996.50;4932678;28;20053;-77
2022/08/30 08:42:35;;;;;;;2.47;0.70;;;21.00;99.90;;;20.42;75.00;101987.63;4939093;28;20040;-77
2022/08/30 08:45:29;;;;;;;1.88;0.90;;;21.10;99.90;;;20.36;72.86;101988.06;4955066;28;20025;-77
2022/08/30 08:48:09;;;;;;;3.05;0.90;;;21.00;99.90;;;20.21;71.33;101979.25;4961911;28;20029;-77
2022/08/30 08:50:35;;;;;;;2.42;0.90;;;21.00;99.90;;;19.99;73.75;101979.00;4964451;28;20126;-77
2022/08/30 08:53:34;;;;;;;3.72;0.85;;;20.60;99.90;;;19.60;70.99;101973.47;4947176;28;20120;-77
2022/08/30 08:56:10;;;;;;;2.42;0.80;;;20.50;99.90;;;19.64;73.64;101980.31;4931852;28;20072;-77
2022/08/30 08:58:47;;;;;;;2.13;0.85;;;20.40;99.90;;;19.67;71.43;101979.25;4959511;28;20049;-77
2022/08/30 09:01:17;;;;;;;2.45;0.98;;;20.60;99.90;;;20.29;70.59;101998.31;4974173;28;20064;-78
2022/08/30 09:03:53;;;;;;;0.73;0.68;;;21.00;99.90;;;21.07;69.78;101997.41;4918005;28;20022;-77
2022/08/30 09:06:52;;;;;;;2.58;0.90;;;21.60;99.90;;;21.46;66.11;101995.56;4925640;28;20030;-77
2022/08/30 09:09:26;;;;;;;1.63;0.90;;;21.70;99.90;;;21.01;65.84;102003.22;4959226;28;20116;-79
2022/08/30 09:11:52;;;;;;;3.22;0.85;;;21.70;99.90;;;20.85;67.34;101998.09;4927194;28;20387;-78
2022/08/30 09:14:33;;;;;;;6.95;0.80;;;21.70;99.90;;;21.03;70.10;102003.97;4936396;23;20049;-78
2022/08/30 09:17:09;;;;;;;2.10;0.57;;;21.60;99.90;;;20.78;66.68;102001.31;4930855;28;20717;-77
2022/08/30 09:19:52;;;;;;;2.75;0.90;;;21.80;99.90;;;21.16;69.45;102008.44;4923881;28;20076;-78
2022/08/30 09:22:37;;;;;;;2.97;0.68;;;21.90;99.90;;;21.42;68.01;101993.22;4964959;28;20101;-78
2022/08/30 09:25:12;;;;;;;1.92;0.70;;;21.80;99.90;;;20.73;64.69;101987.38;4948093;28;20486;-78
2022/08/30 09:27:49;;;;;;;3.08;0.88;;;21.50;99.90;;;20.27;65.91;101983.34;4959831;28;21213;-78
2022/08/30 09:30:25;;;;;;;3.30;0.70;;;21.20;99.90;;;20.28;70.82;101988.59;4953463;28;20041;-78
2022/08/30 09:33:17;;;;;;;3.17;0.60;;;21.20;99.90;;;20.38;67.99;101987.97;4942411;28;20038;-78
2022/08/30 09:35:53;;;;;;;1.65;0.88;;;21.40;99.90;;;20.80;68.27;101994.88;4957090;28;20030;-77
2022/08/30 09:38:34;;;;;;;4.85;0.70;;;21.40;99.90;;;20.67;64.82;101986.84;4949113;28;20852;-77
2022/08/30 09:41:39;;;;;;;1.63;0.80;;;21.50;99.90;;;20.59;64.16;101983.84;4963897;28;20030;-77
2022/08/30 09:44:17;;;;;;;7.10;0.98;;;21.50;99.90;;;20.90;66.29;101998.59;4942197;28;20018;-77
2022/08/30 09:47:04;;;;;;;4.32;0.90;;;21.70;99.90;;;21.17;64.92;101996.78;4973069;28;20022;-79
2022/08/30 09:49:44;;;;;;;3.10;0.82;;;22.10;99.90;;;21.75;64.75;101995.25;4976151;28;20029;-78
2022/08/30 09:52:44;;;;;;;1.77;0.80;;;22.30;99.90;;;21.60;63.74;101996.41;4976230;28;20048;-77
2022/08/30 09:55:36;;;;;;;2.97;0.80;;;21.80;99.90;;;20.45;65.11;102005.28;4983127;23;20054;-78
2022/08/30 09:58:45;;;;;;;2.20;0.73;;;21.20;99.90;;;19.84;65.65;102002.25;5013589;28;20058;-77
2022/08/30 10:01:34;;;;;;;1.70;0.63;;;20.90;99.90;;;19.62;65.31;102000.09;5007426;28;20039;-77
2022/08/30 10:04:22;;;;;;;1.02;0.70;;;20.70;99.90;;;19.76;68.30;102009.91;4992659;28;20033;-78
2022/08/30 10:06:54;;;;;;;2.13;0.85;;;20.70;99.90;;;19.85;67.92;102012.84;4961360;28;20033;-77
2022/08/30 10:09:54;;;;;;;2.85;1.00;;;20.80;99.90;;;19.95;67.62;102012.22;4940108;28;20026;-78
2022/08/30 10:12:44;;;;;;;2.83;1.00;;;21.20;99.90;;;20.71;68.20;102013.38;4963294;28;20517;-77
2022/08/30 10:15:54;;;;;;;1.83;0.77;;;21.30;99.90;;;20.69;64.09;102006.34;4968948;28;20113;-78
2022/08/30 10:18:50;;;;;;;1.25;0.50;;;21.00;99.90;;;20.07;66.18;102003.41;4970971;28;20059;-78
2022/08/30 10:21:38;;;;;;;2.63;1.02;;;21.20;99.90;;;20.47;66.79;102008.72;4958368;28;20033;-78
2022/08/30 10:24:22;;;;;;;1.42;0.60;;;21.10;99.90;;;20.21;66.29;102000.63;4969444;28;20028;-77
2022/08/30 10:27:35;;;;;;;1.10;0.60;;;20.90;99.90;;;19.84;65.75;101997.75;4990889;28;20027;-77